createdAt,value
2017-07-04T00:00:26.357Z,12.80
2017-07-04T00:02:53.658Z,12.80
2017-07-04T00:05:19.932Z,12.70
2017-07-04T00:07:46.213Z,12.60
2017-07-04T00:10:13.495Z,12.70
2017-07-04T00:12:40.806Z,12.70
2017-07-04T00:15:07.077Z,12.70
2017-07-04T00:17:34.381Z,12.70
2017-07-04T00:20:00.681Z,12.70
2017-07-04T00:22:26.942Z,12.70
2017-07-04T00:24:53.210Z,12.80
2017-07-04T00:27:19.485Z,12.90
2017-07-04T00:29:45.777Z,12.80
2017-07-04T00:32:12.065Z,12.80
2017-07-04T00:34:39.077Z,12.80
2017-07-04T00:37:05.345Z,12.80
2017-07-04T00:39:31.597Z,12.80
2017-07-04T00:41:57.858Z,12.80
2017-07-04T00:44:24.149Z,12.80
2017-07-04T00:46:50.424Z,12.80
2017-07-04T00:49:16.698Z,12.70
2017-07-04T00:51:43.714Z,12.80
2017-07-04T00:54:09.993Z,12.80
2017-07-04T00:56:36.286Z,12.80
2017-07-04T00:59:03.293Z,12.90
2017-07-04T01:01:29.572Z,12.90
2017-07-04T01:03:56.593Z,12.90
2017-07-04T01:06:22.857Z,12.90
2017-07-04T01:08:49.169Z,12.80
2017-07-04T01:11:17.198Z,12.70
2017-07-04T01:13:44.501Z,12.70
2017-07-04T01:16:11.500Z,12.70
2017-07-04T01:18:37.805Z,12.70
2017-07-04T01:21:04.085Z,12.50
2017-07-04T01:23:30.345Z,12.50
2017-07-04T01:25:56.626Z,12.40
2017-07-04T01:28:22.898Z,12.40
2017-07-04T01:30:49.184Z,12.30
2017-07-04T01:33:15.457Z,12.30
2017-07-04T01:35:41.761Z,12.20
2017-07-04T01:38:08.031Z,12.20
2017-07-04T01:40:34.297Z,12.10
2017-07-04T01:43:00.584Z,12.10
2017-07-04T01:45:27.912Z,11.90
2017-07-04T01:47:54.933Z,11.80
2017-07-04T01:50:21.227Z,11.80
2017-07-04T01:52:47.550Z,11.80
2017-07-04T01:55:13.826Z,11.70
2017-07-04T01:57:40.114Z,11.70
2017-07-04T02:00:06.393Z,11.70
2017-07-04T02:02:32.677Z,11.60
2017-07-04T02:04:58.970Z,11.60
2017-07-04T02:07:25.236Z,11.60
2017-07-04T02:09:51.519Z,11.60
2017-07-04T02:12:25.068Z,11.60
2017-07-04T02:14:51.364Z,11.50
2017-07-04T02:17:17.617Z,11.50
2017-07-04T02:19:43.882Z,11.40
2017-07-04T02:22:10.165Z,11.40
2017-07-04T02:24:36.466Z,11.40
2017-07-04T02:27:02.717Z,11.40
2017-07-04T02:29:28.986Z,11.40
2017-07-04T02:31:55.249Z,11.40
2017-07-04T02:34:22.273Z,11.40
2017-07-04T02:36:48.597Z,11.30
2017-07-04T02:39:14.866Z,11.40
2017-07-04T02:41:41.127Z,11.40
2017-07-04T02:44:07.392Z,11.40
2017-07-04T02:46:33.691Z,11.40
2017-07-04T02:49:00.004Z,11.40
2017-07-04T02:51:26.262Z,11.40
2017-07-04T02:53:53.392Z,11.40
2017-07-04T02:56:19.669Z,11.40
2017-07-04T02:58:46.682Z,11.50
2017-07-04T03:01:12.985Z,11.40
2017-07-04T03:03:39.317Z,11.50
2017-07-04T03:06:05.572Z,11.50
2017-07-04T03:08:31.838Z,11.50
2017-07-04T03:10:58.845Z,11.60
2017-07-04T03:13:25.126Z,11.50
2017-07-04T03:15:51.393Z,11.60
2017-07-04T03:18:17.660Z,11.60
2017-07-04T03:20:43.943Z,11.70
2017-07-04T03:23:10.200Z,11.70
2017-07-04T03:25:37.481Z,11.70
2017-07-04T03:28:04.498Z,11.70
2017-07-04T03:30:30.763Z,11.60
2017-07-04T03:32:57.034Z,11.70
2017-07-04T03:35:23.317Z,11.70
2017-07-04T03:37:49.611Z,11.70
2017-07-04T03:40:15.869Z,11.70
2017-07-04T03:42:42.870Z,11.70
2017-07-04T03:45:09.170Z,11.70
2017-07-04T03:47:35.452Z,11.80
2017-07-04T03:50:01.740Z,11.80
2017-07-04T03:52:28.027Z,11.80
2017-07-04T03:54:54.352Z,11.80
2017-07-04T03:57:21.390Z,11.90
2017-07-04T03:59:47.656Z,11.90
2017-07-04T04:02:13.933Z,12.00
2017-07-04T04:04:40.205Z,12.10
2017-07-04T04:07:07.209Z,12.10
2017-07-04T04:09:34.159Z,12.10
2017-07-04T04:12:01.445Z,12.20
2017-07-04T04:14:28.738Z,12.20
2017-07-04T04:16:58.979Z,12.20
2017-07-04T04:19:25.242Z,12.30
2017-07-04T04:21:52.235Z,12.40
2017-07-04T04:24:18.501Z,12.40
2017-07-04T04:26:44.789Z,12.50
2017-07-04T04:29:11.050Z,12.70
2017-07-04T04:31:37.308Z,12.90
2017-07-04T04:34:04.329Z,13.10
2017-07-04T04:36:30.619Z,13.10
2017-07-04T04:38:56.906Z,13.20
2017-07-04T04:41:23.915Z,13.30
2017-07-04T04:43:50.172Z,13.30
2017-07-04T04:46:16.457Z,13.40
2017-07-04T04:48:42.714Z,13.30
2017-07-04T04:51:08.985Z,13.40
2017-07-04T04:53:35.257Z,13.40
2017-07-04T04:56:01.523Z,13.50
2017-07-04T04:58:28.553Z,13.60
2017-07-04T05:00:54.810Z,13.60
2017-07-04T05:03:21.817Z,13.80
2017-07-04T05:05:48.097Z,13.70
2017-07-04T05:08:14.377Z,13.90
2017-07-04T05:10:40.641Z,13.80
2017-07-04T05:13:07.321Z,13.90
2017-07-04T05:15:33.582Z,13.90
2017-07-04T05:17:59.877Z,14.00
2017-07-04T05:20:26.144Z,14.10
2017-07-04T05:22:52.408Z,14.10
2017-07-04T05:25:18.669Z,14.10
2017-07-04T05:27:44.925Z,14.10
2017-07-04T05:30:11.213Z,14.10
2017-07-04T05:32:37.473Z,14.10
2017-07-04T05:35:03.734Z,14.20
2017-07-04T05:37:30.737Z,14.40
2017-07-04T05:39:57.018Z,14.40
2017-07-04T05:42:23.297Z,14.40
2017-07-04T05:44:49.582Z,14.30
2017-07-04T05:47:15.833Z,14.30
2017-07-04T05:49:42.162Z,14.20
2017-07-04T05:52:08.437Z,14.40
2017-07-04T05:54:34.730Z,14.60
2017-07-04T05:57:00.993Z,14.90
2017-07-04T05:59:28.010Z,15.30
2017-07-04T06:01:54.298Z,15.30
2017-07-04T06:04:20.587Z,15.60
2017-07-04T06:06:46.881Z,15.90
2017-07-04T06:09:13.162Z,16.00
2017-07-04T06:11:40.166Z,16.10
2017-07-04T06:14:06.437Z,16.10
2017-07-04T06:16:33.442Z,16.00
2017-07-04T06:18:59.724Z,15.90
2017-07-04T06:21:25.996Z,15.90
2017-07-04T06:23:52.255Z,15.90
2017-07-04T06:26:18.509Z,15.90
2017-07-04T06:28:45.500Z,16.30
2017-07-04T06:31:11.785Z,16.30
2017-07-04T06:33:38.789Z,16.70
2017-07-04T06:36:05.049Z,16.70
2017-07-04T06:38:31.302Z,17.00
2017-07-04T06:40:58.078Z,17.10
2017-07-04T06:43:24.365Z,17.20
2017-07-04T06:45:50.629Z,17.20
2017-07-04T06:48:16.882Z,17.40
2017-07-04T06:50:43.142Z,17.50
2017-07-04T06:53:10.136Z,18.00
2017-07-04T06:55:37.445Z,17.90
2017-07-04T06:58:04.447Z,18.50
2017-07-04T07:00:30.697Z,18.50
2017-07-04T07:02:56.953Z,18.90
2017-07-04T07:05:23.215Z,19.00
2017-07-04T07:07:49.481Z,19.30
2017-07-04T07:10:15.737Z,19.70
2017-07-04T07:12:42.005Z,19.80
2017-07-04T07:15:08.293Z,19.80
2017-07-04T07:17:34.560Z,19.90
2017-07-04T07:20:00.823Z,20.00
2017-07-04T07:22:27.109Z,20.10
2017-07-04T07:24:53.365Z,20.30
2017-07-04T07:27:19.619Z,20.50
2017-07-04T07:29:46.645Z,20.80
2017-07-04T07:32:12.910Z,20.80
2017-07-04T07:34:39.913Z,21.40
2017-07-04T07:37:06.179Z,21.40
2017-07-04T07:39:32.462Z,21.70
2017-07-04T07:41:58.736Z,21.60
2017-07-04T07:44:25.745Z,21.40
2017-07-04T07:46:52.001Z,21.30
2017-07-04T07:49:18.260Z,21.50
2017-07-04T07:51:44.509Z,21.70
2017-07-04T07:54:10.786Z,21.80
2017-07-04T07:56:37.809Z,22.40
2017-07-04T07:59:04.063Z,22.30
2017-07-04T08:01:32.069Z,22.10
2017-07-04T08:03:58.317Z,22.10
2017-07-04T08:06:24.601Z,22.10
2017-07-04T08:08:51.609Z,22.40
2017-07-04T08:11:17.859Z,22.40
2017-07-04T08:13:44.853Z,22.30
2017-07-04T08:16:11.105Z,22.20
2017-07-04T08:18:37.386Z,22.10
2017-07-04T08:21:03.642Z,21.60
2017-07-04T08:23:29.912Z,21.30
2017-07-04T08:25:56.173Z,21.40
2017-07-04T08:28:22.429Z,21.40
2017-07-04T08:30:48.709Z,21.30
2017-07-04T08:33:15.715Z,21.40
2017-07-04T08:35:41.979Z,21.30
2017-07-04T08:38:09.006Z,21.40
2017-07-04T08:40:35.273Z,21.40
2017-07-04T08:43:01.547Z,21.40
2017-07-04T08:45:27.809Z,21.30
2017-07-04T08:47:54.060Z,21.70
2017-07-04T08:50:20.320Z,22.20
2017-07-04T08:52:46.577Z,22.70
2017-07-04T08:55:12.853Z,22.50
2017-07-04T08:57:40.162Z,22.20
2017-07-04T09:00:06.414Z,22.00
2017-07-04T09:02:33.410Z,23.00
2017-07-04T09:04:59.665Z,23.00
2017-07-04T09:07:25.949Z,23.50
2017-07-04T09:09:52.494Z,23.20
2017-07-04T09:12:18.749Z,22.50
2017-07-04T09:14:45.015Z,22.70
2017-07-04T09:17:12.011Z,22.80
2017-07-04T09:19:38.286Z,22.90
2017-07-04T09:22:05.288Z,22.70
2017-07-04T09:24:31.566Z,22.70
2017-07-04T09:26:57.830Z,22.20
2017-07-04T09:29:24.095Z,22.30
2017-07-04T09:31:50.382Z,22.90
2017-07-04T09:34:16.630Z,23.30
2017-07-04T09:36:42.885Z,22.90
2017-07-04T09:39:09.141Z,23.60
2017-07-04T09:41:35.409Z,24.10
2017-07-04T09:44:01.693Z,24.30
2017-07-04T09:46:28.690Z,23.40
2017-07-04T09:48:54.950Z,23.30
2017-07-04T09:51:21.203Z,23.10
2017-07-04T09:53:47.457Z,22.80
2017-07-04T09:56:13.738Z,22.90
2017-07-04T09:58:40.745Z,24.10
2017-07-04T10:01:07.000Z,24.10
2017-07-04T10:03:33.265Z,24.00
2017-07-04T10:05:59.533Z,24.10
2017-07-04T10:08:25.797Z,24.00
2017-07-04T10:10:52.808Z,24.10
2017-07-04T10:13:19.054Z,24.10
2017-07-04T10:15:45.325Z,24.10
2017-07-04T10:18:11.602Z,24.00
2017-07-04T10:20:37.858Z,24.00
2017-07-04T10:23:05.877Z,24.30
2017-07-04T10:25:32.146Z,24.30
2017-07-04T10:27:58.405Z,23.80
2017-07-04T10:30:24.664Z,23.50
2017-07-04T10:32:50.922Z,23.30
2017-07-04T10:35:17.227Z,23.90
2017-07-04T10:37:43.516Z,24.50
2017-07-04T10:40:10.522Z,23.50
2017-07-04T10:42:36.786Z,23.50
2017-07-04T10:45:03.797Z,23.80
2017-07-04T10:47:30.090Z,23.80
2017-07-04T10:49:56.338Z,23.50
2017-07-04T10:52:22.597Z,23.40
2017-07-04T10:54:48.879Z,23.80
2017-07-04T10:57:15.163Z,24.30
2017-07-04T10:59:43.186Z,25.30
2017-07-04T11:02:09.484Z,25.20
2017-07-04T11:04:35.745Z,26.00
2017-07-04T11:07:01.998Z,26.30
2017-07-04T11:09:28.258Z,25.60
2017-07-04T11:11:55.273Z,24.70
2017-07-04T11:14:21.529Z,24.70
2017-07-04T11:16:48.521Z,25.40
2017-07-04T11:19:14.777Z,25.30
2017-07-04T11:21:41.025Z,25.60
2017-07-04T11:24:08.041Z,25.20
2017-07-04T11:26:34.301Z,25.20
2017-07-04T11:29:01.300Z,26.20
2017-07-04T11:31:27.562Z,26.10
2017-07-04T11:33:53.833Z,26.20
2017-07-04T11:36:20.106Z,25.80
2017-07-04T11:38:46.379Z,25.30
2017-07-04T11:41:12.642Z,25.20
2017-07-04T11:43:38.911Z,25.20
2017-07-04T11:46:05.191Z,24.80
2017-07-04T11:48:31.466Z,24.30
2017-07-04T11:50:57.738Z,24.40
2017-07-04T11:53:23.986Z,24.10
2017-07-04T11:55:50.253Z,24.60
2017-07-04T11:58:16.562Z,24.90
2017-07-04T12:00:42.856Z,25.20
2017-07-04T12:03:09.111Z,25.40
2017-07-04T12:05:35.357Z,24.90
2017-07-04T12:08:01.613Z,24.90
2017-07-04T12:10:28.614Z,25.30
2017-07-04T12:12:54.893Z,25.20
2017-07-04T12:15:21.893Z,25.50
2017-07-04T12:17:48.149Z,25.50
2017-07-04T12:20:14.409Z,25.30
2017-07-04T12:22:40.668Z,25.30
2017-07-04T12:25:06.941Z,25.20
2017-07-04T12:27:33.941Z,25.40
2017-07-04T12:30:00.198Z,25.50
2017-07-04T12:32:26.506Z,26.00
2017-07-04T12:34:52.770Z,26.10
2017-07-04T12:37:19.792Z,27.20
2017-07-04T12:39:46.045Z,27.30
2017-07-04T12:42:13.041Z,27.60
2017-07-04T12:44:39.307Z,27.60
2017-07-04T12:47:05.557Z,28.50
2017-07-04T12:49:32.541Z,29.90
2017-07-04T12:51:58.816Z,29.80
2017-07-04T12:54:25.073Z,30.70
2017-07-04T12:56:51.333Z,31.10
2017-07-04T12:59:17.593Z,31.80
2017-07-04T13:01:43.860Z,31.90
2017-07-04T13:04:10.134Z,31.20
2017-07-04T13:06:36.850Z,31.10
2017-07-04T13:09:03.157Z,31.00
2017-07-04T13:11:29.416Z,29.90
2017-07-04T13:13:55.674Z,29.50
2017-07-04T13:16:21.954Z,30.10
2017-07-04T13:18:48.223Z,29.30
2017-07-04T13:21:14.513Z,28.70
2017-07-04T13:23:40.788Z,28.80
2017-07-04T13:26:07.154Z,29.50
2017-07-04T13:28:33.418Z,29.00
2017-07-04T13:30:59.679Z,30.60
2017-07-04T13:33:25.949Z,31.80
2017-07-04T13:35:52.217Z,32.30
2017-07-04T13:38:18.478Z,32.10
2017-07-04T13:40:45.517Z,32.50
2017-07-04T13:43:11.796Z,32.50
2017-07-04T13:45:38.061Z,32.20
2017-07-04T13:48:04.337Z,31.20
2017-07-04T13:50:30.601Z,28.60
2017-07-04T13:52:56.906Z,29.30
2017-07-04T13:55:23.174Z,30.10
2017-07-04T13:57:49.433Z,31.40
2017-07-04T14:00:15.703Z,32.40
2017-07-04T14:02:41.967Z,32.60
2017-07-04T14:05:08.242Z,33.60
2017-07-04T14:07:34.493Z,34.10
2017-07-04T14:10:00.756Z,34.50
2017-07-04T14:12:27.021Z,34.70
2017-07-04T14:14:53.273Z,30.80
2017-07-04T14:17:19.557Z,31.50
2017-07-04T14:19:46.557Z,34.90
2017-07-04T14:22:12.813Z,34.80
2017-07-04T14:24:39.091Z,36.10
2017-07-04T14:27:05.361Z,36.10
2017-07-04T14:29:31.665Z,35.20
2017-07-04T14:31:57.917Z,34.90
2017-07-04T14:34:24.174Z,35.70
2017-07-04T14:36:51.174Z,35.10
2017-07-04T14:39:17.430Z,35.00
2017-07-04T14:41:43.708Z,36.00
2017-07-04T14:44:09.961Z,36.20
2017-07-04T14:46:36.210Z,36.60
2017-07-04T14:49:02.469Z,36.40
2017-07-04T14:51:29.462Z,35.70
2017-07-04T14:53:55.734Z,35.70
2017-07-04T14:56:22.741Z,36.00
2017-07-04T14:58:49.026Z,36.00
2017-07-04T15:01:15.290Z,35.90
2017-07-04T15:03:41.550Z,35.50
2017-07-04T15:06:07.853Z,35.50
2017-07-04T15:08:34.110Z,35.50
2017-07-04T15:11:00.370Z,36.00
2017-07-04T15:13:26.636Z,36.40
2017-07-04T15:15:52.904Z,36.50
2017-07-04T15:18:19.173Z,36.60
2017-07-04T15:20:45.445Z,36.80
2017-07-04T15:23:11.693Z,36.90
2017-07-04T15:25:37.941Z,37.00
2017-07-04T15:28:04.214Z,36.90
2017-07-04T15:30:30.486Z,36.60
2017-07-04T15:32:57.811Z,36.50
2017-07-04T15:35:24.078Z,36.50
2017-07-04T15:37:50.338Z,36.70
2017-07-04T15:40:16.614Z,36.50
2017-07-04T15:42:42.873Z,36.00
2017-07-04T15:45:09.129Z,35.40
2017-07-04T15:47:35.391Z,35.50
2017-07-04T15:50:01.651Z,35.00
2017-07-04T15:52:27.941Z,35.60
2017-07-04T15:54:54.202Z,35.60
2017-07-04T15:57:21.193Z,36.50
2017-07-04T15:59:47.442Z,36.50
2017-07-04T16:02:13.694Z,35.20
2017-07-04T16:04:40.710Z,34.10
2017-07-04T16:07:06.978Z,34.00
2017-07-04T16:09:33.244Z,34.30
2017-07-04T16:11:59.497Z,33.70
2017-07-04T16:14:26.777Z,33.50
2017-07-04T16:16:53.806Z,34.70
2017-07-04T16:19:20.218Z,34.70
2017-07-04T16:21:46.478Z,35.10
2017-07-04T16:24:12.740Z,36.00
2017-07-04T16:26:39.001Z,36.80
2017-07-04T16:29:05.307Z,37.00
2017-07-04T16:31:31.566Z,36.40
2017-07-04T16:33:57.821Z,36.40
2017-07-04T16:36:24.839Z,36.60
2017-07-04T16:38:51.097Z,36.60
2017-07-04T16:41:18.129Z,36.60
2017-07-04T16:43:44.406Z,36.50
2017-07-04T16:46:10.665Z,36.50
2017-07-04T16:48:36.925Z,36.50
2017-07-04T16:51:03.197Z,37.80
2017-07-04T16:53:29.479Z,37.00
2017-07-04T16:55:55.753Z,34.50
2017-07-04T16:58:22.038Z,33.30
2017-07-04T17:00:49.331Z,33.60
2017-07-04T17:03:16.653Z,33.80
2017-07-04T17:05:42.941Z,33.20
2017-07-04T17:08:09.202Z,34.60
2017-07-04T17:10:36.566Z,35.00
2017-07-04T17:13:03.561Z,33.90
2017-07-04T17:15:29.941Z,33.80
2017-07-04T17:17:56.964Z,31.10
2017-07-04T17:20:23.238Z,31.00
2017-07-04T17:22:49.722Z,29.30
2017-07-04T17:25:15.984Z,28.40
2017-07-04T17:27:42.247Z,27.80
2017-07-04T17:30:08.541Z,27.20
2017-07-04T17:32:35.562Z,26.40
2017-07-04T17:35:01.817Z,26.30
2017-07-04T17:37:28.898Z,26.00
2017-07-04T17:39:55.691Z,26.00
2017-07-04T17:42:22.083Z,25.90
2017-07-04T17:44:48.353Z,25.50
2017-07-04T17:47:14.609Z,25.20
2017-07-04T17:49:40.867Z,25.00
2017-07-04T17:52:07.137Z,25.00
2017-07-04T17:54:33.437Z,24.70
2017-07-04T17:56:59.722Z,24.30
2017-07-04T17:59:27.009Z,24.10
2017-07-04T18:01:53.798Z,24.00
2017-07-04T18:04:20.053Z,23.90
2017-07-04T18:06:46.321Z,23.80
2017-07-04T18:09:12.639Z,23.70
2017-07-04T18:11:38.905Z,23.50
2017-07-04T18:14:05.173Z,23.40
2017-07-04T18:16:31.462Z,23.20
2017-07-04T18:18:57.754Z,23.00
2017-07-04T18:21:24.043Z,22.90
2017-07-04T18:23:50.306Z,22.60
2017-07-04T18:26:16.591Z,22.30
2017-07-04T18:28:43.631Z,21.90
2017-07-04T18:31:09.914Z,21.90
2017-07-04T18:33:36.242Z,21.80
2017-07-04T18:36:02.513Z,21.60
2017-07-04T18:38:28.822Z,21.50
2017-07-04T18:40:55.077Z,21.30
2017-07-04T18:43:21.329Z,21.20
2017-07-04T18:45:47.616Z,21.20
2017-07-04T18:48:13.869Z,21.10
2017-07-04T18:50:40.875Z,20.70
2017-07-04T18:53:07.141Z,20.60
2017-07-04T18:55:34.137Z,20.20
2017-07-04T18:58:00.430Z,20.20
2017-07-04T19:00:26.764Z,20.00
2017-07-04T19:02:53.047Z,19.80
2017-07-04T19:05:19.318Z,19.70
2017-07-04T19:07:46.326Z,19.30
2017-07-04T19:10:12.677Z,19.30
2017-07-04T19:12:39.689Z,19.00
2017-07-04T19:15:05.945Z,19.00
2017-07-04T19:17:32.202Z,19.00
2017-07-04T19:19:58.473Z,18.80
2017-07-04T19:22:24.764Z,18.80
2017-07-04T19:24:51.035Z,18.60
2017-07-04T19:27:17.340Z,18.50
2017-07-04T19:29:43.605Z,18.30
2017-07-04T19:32:09.881Z,18.20
2017-07-04T19:34:36.166Z,18.10
2017-07-04T19:37:02.431Z,17.90
2017-07-04T19:39:28.713Z,17.80
2017-07-04T19:41:54.965Z,17.70
2017-07-04T19:44:21.257Z,17.60
2017-07-04T19:46:47.575Z,17.50
2017-07-04T19:49:13.894Z,17.50
2017-07-04T19:51:40.154Z,17.50
2017-07-04T19:54:06.437Z,17.40
2017-07-04T19:56:32.726Z,17.40
2017-07-04T19:58:59.045Z,17.40
2017-07-04T20:01:25.418Z,17.40
2017-07-04T20:03:52.417Z,17.20
2017-07-04T20:06:18.691Z,17.20
2017-07-04T20:08:45.762Z,17.10
2017-07-04T20:11:12.146Z,17.00
2017-07-04T20:13:38.414Z,16.90
2017-07-04T20:16:05.315Z,16.90
2017-07-04T20:18:31.577Z,16.80
2017-07-04T20:20:57.846Z,16.70
2017-07-04T20:23:24.130Z,16.70
2017-07-04T20:25:50.433Z,16.60
2017-07-04T20:28:16.706Z,16.60
2017-07-04T20:30:42.969Z,16.50
2017-07-04T20:33:09.234Z,16.40
2017-07-04T20:35:35.525Z,16.40
2017-07-04T20:38:01.809Z,16.40
2017-07-04T20:40:28.879Z,16.30
2017-07-04T20:42:55.150Z,16.30
2017-07-04T20:45:21.444Z,16.40
2017-07-04T20:47:47.706Z,16.30
2017-07-04T20:50:13.974Z,16.20
2017-07-04T20:52:40.229Z,16.10
2017-07-04T20:55:06.509Z,16.10
2017-07-04T20:57:32.795Z,16.10
2017-07-04T20:59:59.070Z,16.00
2017-07-04T21:02:26.118Z,16.00
2017-07-04T21:04:53.126Z,16.00
2017-07-04T21:07:19.394Z,16.00
2017-07-04T21:09:46.430Z,15.90
2017-07-04T21:12:13.441Z,15.90
2017-07-04T21:14:39.700Z,15.90
2017-07-04T21:17:05.960Z,15.90
2017-07-04T21:19:32.217Z,15.90
2017-07-04T21:21:58.505Z,15.80
2017-07-04T21:24:25.509Z,15.80
2017-07-04T21:26:51.777Z,15.70
2017-07-04T21:29:18.785Z,15.70
2017-07-04T21:31:45.053Z,15.60
2017-07-04T21:34:12.082Z,15.60
2017-07-04T21:36:38.346Z,15.60
2017-07-04T21:39:04.605Z,15.60
2017-07-04T21:41:30.871Z,15.60
2017-07-04T21:43:57.166Z,15.60
2017-07-04T21:46:24.486Z,15.70
2017-07-04T21:48:50.762Z,15.70
2017-07-04T21:51:17.022Z,15.70
2017-07-04T21:53:43.309Z,15.80
2017-07-04T21:56:09.594Z,15.70
2017-07-04T21:58:35.891Z,15.60
2017-07-04T22:01:02.172Z,15.50
2017-07-04T22:03:28.466Z,15.50
2017-07-04T22:05:54.748Z,15.50
2017-07-04T22:08:22.049Z,15.40
2017-07-04T22:10:49.077Z,15.30
2017-07-04T22:13:15.338Z,15.30
2017-07-04T22:15:41.610Z,15.30
2017-07-04T22:18:07.882Z,15.30
2017-07-04T22:20:34.935Z,15.30
2017-07-04T22:23:02.998Z,15.20
2017-07-04T22:25:30.010Z,15.10
2017-07-04T22:27:56.289Z,15.10
2017-07-04T22:30:22.563Z,15.10
2017-07-04T22:32:48.838Z,15.10
2017-07-04T22:35:15.862Z,15.00
2017-07-04T22:37:42.134Z,14.90
2017-07-04T22:40:08.415Z,14.90
2017-07-04T22:42:34.691Z,14.90
2017-07-04T22:45:00.969Z,14.90
2017-07-04T22:47:27.269Z,14.80
2017-07-04T22:49:53.536Z,14.90
2017-07-04T22:52:20.831Z,14.80
2017-07-04T22:54:48.149Z,14.70
2017-07-04T22:57:15.451Z,14.70
2017-07-04T22:59:41.750Z,14.60
2017-07-04T23:02:08.005Z,14.60
2017-07-04T23:04:34.281Z,14.60
2017-07-04T23:07:01.307Z,14.50
2017-07-04T23:09:27.606Z,14.50
2017-07-04T23:11:53.914Z,14.50
2017-07-04T23:14:20.185Z,14.40
2017-07-04T23:16:46.494Z,14.40
2017-07-04T23:19:12.809Z,14.40
2017-07-04T23:21:39.081Z,14.40
2017-07-04T23:24:05.342Z,14.40
2017-07-04T23:26:31.646Z,14.40
2017-07-04T23:28:57.911Z,14.30
2017-07-04T23:31:24.926Z,14.30
2017-07-04T23:33:51.186Z,14.30
2017-07-04T23:36:18.209Z,14.30
2017-07-04T23:38:44.502Z,14.30
2017-07-04T23:41:10.766Z,14.30
2017-07-04T23:43:37.042Z,14.30
2017-07-04T23:46:03.317Z,14.30
2017-07-04T23:48:29.582Z,14.30
2017-07-04T23:50:55.865Z,14.20
2017-07-04T23:53:22.149Z,14.20
2017-07-04T23:55:48.445Z,14.20
2017-07-04T23:58:14.759Z,14.10
